Aérodrome :
LOGIN :

S'inscrire | Disclaimer

   EN    FR    IT 

 










Légende :    VFR   VFR Marginal   IFR   IFR Intensif   IFR Très Intensif
Visi : 
Plafond : 
>= 8 km
>= 3000ft
5 à 8 km
1000 à 3000 ft
1500m à 5 km
500 à 1000 ft
800 à 1500m
200 à 500 ft
< 800m
< 200 ft
Symboles :   Orages  Brouillard  Fortes neiges  Fortes précipitations  Vent > 20 kt
SIGMETs :   Divers  Orages  Givrage  Turbulence  Onde Orograph.  Cendres Volcan.






- Altitude de l'aérodrome : 163 ft
- Code IATA : IST


LTBA - Ataturk

DERNIER METAR :
  • 090550Z 22013KT 9999 FEW019 BKN040 11/08 Q1016 NOSIG RMK RWY23 22014KT

METARs EXPIRÉS :
  • 090520Z 23012KT 9999 FEW012 BKN036 11/08 Q1016 NOSIG RMK RWY23 23014KT
  • 090450Z 22011KT 9999 FEW012 BKN036 11/08 Q1016 NOSIG RMK RWY23 23010KT
  • 090420Z 23010KT 9999 FEW012 BKN036 11/08 Q1016 NOSIG
  • 090350Z 23011KT 9999 FEW012 BKN036 11/08 Q1016 NOSIG RMK RWY23 23011KT
  • 090320Z 24009KT 9999 FEW012 BKN036 11/08 Q1016 NOSIG RMK RWY23 24009KT

TAF TAF LTBA
Valide du 09 à 06h jusqu'au 10 à 12h UTC


090440Z 0906/1012 23009KT 9999 SCT030
BECMG 0906/0908 CAVOK
TEMPO 0910/0913 21015G25KT
BECMG 0915/0917 SCT033



MET'MAP, la Météo Aéronautique d'un coup d'oeil ! - Copyright ORBIFLY Décembre 2007 - Disclaimer

ORBIFLY MET'MAP TEAM :

Programmation & Développement : Alexandra Zaïnal
Sur une idée originale de : Baudouin d'Aumeries
Assistance à la programmation : Marc-Olivier Méhu
Soutien technique & logistique : Manuel Goepfert

Contact : metmap@orbifly.com




SOURCES & CREDITS :

   NOAA